sensor_id;sensor_type;location;lat;lon;timestamp;pressure;altitude;pressure_sealevel;temperature;humidity
5872;BME280;2962;51.312;7.378;2023-05-19T00:00:59;98330.84;;;7.96;100.00
5872;BME280;2962;51.312;7.378;2023-05-19T00:03:25;98326.44;;;7.82;100.00
5872;BME280;2962;51.312;7.378;2023-05-19T00:05:52;98325.56;;;7.91;100.00
5872;BME280;2962;51.312;7.378;2023-05-19T00:08:18;98317.44;;;7.91;100.00
5872;BME280;2962;51.312;7.378;2023-05-19T00:10:44;98319.41;;;7.81;100.00
5872;BME280;2962;51.312;7.378;2023-05-19T00:13:10;98320.63;;;7.93;100.00
5872;BME280;2962;51.312;7.378;2023-05-19T00:15:35;98325.44;;;7.87;100.00
5872;BME280;2962;51.312;7.378;2023-05-19T00:18:01;98321.63;;;7.88;100.00
5872;BME280;2962;51.312;7.378;2023-05-19T00:20:26;98319.22;;;7.87;100.00
5872;BME280;2962;51.312;7.378;2023-05-19T00:22:51;98319.94;;;7.75;100.00
5872;BME280;2962;51.312;7.378;2023-05-19T00:25:17;98313.72;;;7.74;100.00
5872;BME280;2962;51.312;7.378;2023-05-19T00:27:42;98303.63;;;7.54;100.00
5872;BME280;2962;51.312;7.378;2023-05-19T00:30:08;98313.06;;;7.48;100.00
5872;BME280;2962;51.312;7.378;2023-05-19T00:32:33;98312.44;;;7.42;100.00
5872;BME280;2962;51.312;7.378;2023-05-19T00:34:58;98315.19;;;7.33;100.00
5872;BME280;2962;51.312;7.378;2023-05-19T00:37:24;98319.03;;;7.32;100.00
5872;BME280;2962;51.312;7.378;2023-05-19T00:39:50;98308.84;;;7.21;100.00
5872;BME280;2962;51.312;7.378;2023-05-19T00:42:15;98303.47;;;7.12;100.00
5872;BME280;2962;51.312;7.378;2023-05-19T00:44:41;98315.25;;;7.16;100.00
5872;BME280;2962;51.312;7.378;2023-05-19T00:47:07;98313.97;;;7.14;100.00
5872;BME280;2962;51.312;7.378;2023-05-19T00:49:32;98314.47;;;7.16;100.00
5872;BME280;2962;51.312;7.378;2023-05-19T00:52:00;98326.25;;;7.20;100.00
5872;BME280;2962;51.312;7.378;2023-05-19T00:54:26;98317.47;;;7.14;100.00
5872;BME280;2962;51.312;7.378;2023-05-19T00:56:53;98317.84;;;7.04;100.00
5872;BME280;2962;51.312;7.378;2023-05-19T00:59:18;98321.38;;;6.96;100.00
5872;BME280;2962;51.312;7.378;2023-05-19T01:01:44;98324.88;;;6.88;100.00
5872;BME280;2962;51.312;7.378;2023-05-19T01:04:14;98323.00;;;6.79;100.00
5872;BME280;2962;51.312;7.378;2023-05-19T01:06:41;98323.78;;;6.80;100.00
5872;BME280;2962;51.312;7.378;2023-05-19T01:09:06;98317.56;;;6.79;100.00
5872;BME280;2962;51.312;7.378;2023-05-19T01:11:33;98323.50;;;6.73;100.00
5872;BME280;2962;51.312;7.378;2023-05-19T01:13:58;98314.88;;;6.79;100.00
5872;BME280;2962;51.312;7.378;2023-05-19T01:16:29;98320.41;;;6.92;100.00
5872;BME280;2962;51.312;7.378;2023-05-19T01:27:45;98309.13;;;6.90;100.00
5872;BME280;2962;51.312;7.378;2023-05-19T01:30:36;98309.88;;;6.99;100.00
5872;BME280;2962;51.312;7.378;2023-05-19T01:33:06;98307.34;;;6.94;100.00
5872;BME280;2962;51.312;7.378;2023-05-19T01:35:35;98306.84;;;7.09;100.00
5872;BME280;2962;51.312;7.378;2023-05-19T01:38:02;98301.53;;;7.21;100.00
5872;BME280;2962;51.312;7.378;2023-05-19T01:40:28;98305.31;;;7.29;100.00
5872;BME280;2962;51.312;7.378;2023-05-19T01:42:56;98298.34;;;7.19;100.00
5872;BME280;2962;51.312;7.378;2023-05-19T01:45:23;98288.81;;;7.13;100.00
5872;BME280;2962;51.312;7.378;2023-05-19T01:47:53;98301.34;;;7.26;100.00
5872;BME280;2962;51.312;7.378;2023-05-19T01:50:18;98301.53;;;7.21;100.00
5872;BME280;2962;51.312;7.378;2023-05-19T01:52:44;98293.25;;;7.18;100.00
5872;BME280;2962;51.312;7.378;2023-05-19T01:55:09;98294.63;;;7.32;100.00
5872;BME280;2962;51.312;7.378;2023-05-19T01:58:09;98296.69;;;7.36;100.00
5872;BME280;2962;51.312;7.378;2023-05-19T02:03:41;98302.47;;;7.25;100.00
5872;BME280;2962;51.312;7.378;2023-05-19T02:14:23;98323.06;;;7.18;100.00
5872;BME280;2962;51.312;7.378;2023-05-19T02:16:51;98321.16;;;7.09;100.00
5872;BME280;2962;51.312;7.378;2023-05-19T02:19:27;98313.88;;;7.01;100.00
5872;BME280;2962;51.312;7.378;2023-05-19T02:21:53;98314.50;;;6.98;100.00
5872;BME280;2962;51.312;7.378;2023-05-19T02:24:18;98316.91;;;7.00;100.00
5872;BME280;2962;51.312;7.378;2023-05-19T02:26:44;98310.03;;;7.02;100.00
5872;BME280;2962;51.312;7.378;2023-05-19T02:29:10;98307.97;;;6.99;100.00
5872;BME280;2962;51.312;7.378;2023-05-19T02:31:36;98316.72;;;7.05;100.00
5872;BME280;2962;51.312;7.378;2023-05-19T02:34:01;98311.94;;;7.02;100.00
5872;BME280;2962;51.312;7.378;2023-05-19T02:36:26;98306.22;;;7.03;100.00
5872;BME280;2962;51.312;7.378;2023-05-19T02:38:52;98306.84;;;7.09;100.00
5872;BME280;2962;51.312;7.378;2023-05-19T02:41:17;98310.19;;;7.06;100.00
5872;BME280;2962;51.312;7.378;2023-05-19T02:43:42;98305.88;;;7.05;100.00
5872;BME280;2962;51.312;7.378;2023-05-19T02:46:08;98291.84;;;7.12;100.00
5872;BME280;2962;51.312;7.378;2023-05-19T02:48:33;98297.28;;;7.12;100.00
5872;BME280;2962;51.312;7.378;2023-05-19T02:50:58;98300.47;;;7.05;100.00
5872;BME280;2962;51.312;7.378;2023-05-19T02:53:23;98308.25;;;7.06;100.00
5872;BME280;2962;51.312;7.378;2023-05-19T02:55:49;98301.91;;;7.02;100.00
5872;BME280;2962;51.312;7.378;2023-05-19T02:58:14;98302.88;;;6.98;100.00
5872;BME280;2962;51.312;7.378;2023-05-19T03:00:39;98302.72;;;6.94;100.00
5872;BME280;2962;51.312;7.378;2023-05-19T03:03:05;98293.19;;;6.88;100.00
5872;BME280;2962;51.312;7.378;2023-05-19T03:05:30;98292.72;;;6.86;100.00
5872;BME280;2962;51.312;7.378;2023-05-19T03:07:55;98298.75;;;6.92;100.00
5872;BME280;2962;51.312;7.378;2023-05-19T03:10:21;98293.53;;;6.78;100.00
5872;BME280;2962;51.312;7.378;2023-05-19T03:12:47;98283.66;;;6.65;100.00
5872;BME280;2962;51.312;7.378;2023-05-19T03:15:12;98287.97;;;6.57;100.00
5872;BME280;2962;51.312;7.378;2023-05-19T03:17:39;98285.28;;;6.66;100.00
5872;BME280;2962;51.312;7.378;2023-05-19T03:20:05;98282.72;;;6.69;100.00
5872;BME280;2962;51.312;7.378;2023-05-19T03:22:32;98281.63;;;6.53;100.00
5872;BME280;2962;51.312;7.378;2023-05-19T03:24:57;98280.06;;;6.43;100.00
5872;BME280;2962;51.312;7.378;2023-05-19T03:27:23;98288.66;;;6.36;100.00
5872;BME280;2962;51.312;7.378;2023-05-19T03:29:48;98283.25;;;6.28;100.00
5872;BME280;2962;51.312;7.378;2023-05-19T03:32:14;98287.69;;;6.32;100.00
5872;BME280;2962;51.312;7.378;2023-05-19T03:34:39;98294.69;;;6.51;100.00
5872;BME280;2962;51.312;7.378;2023-05-19T03:37:04;98296.91;;;6.49;100.00
5872;BME280;2962;51.312;7.378;2023-05-19T03:39:30;98292.78;;;6.43;100.00
5872;BME280;2962;51.312;7.378;2023-05-19T03:41:55;98291.50;;;6.49;100.00
5872;BME280;2962;51.312;7.378;2023-05-19T03:44:20;98299.16;;;6.47;100.00
5872;BME280;2962;51.312;7.378;2023-05-19T03:46:45;98302.84;;;6.42;100.00
5872;BME280;2962;51.312;7.378;2023-05-19T03:49:11;98295.16;;;6.44;100.00
5872;BME280;2962;51.312;7.378;2023-05-19T03:51:36;98293.28;;;6.36;100.00
5872;BME280;2962;51.312;7.378;2023-05-19T03:54:01;98288.81;;;6.31;100.00
5872;BME280;2962;51.312;7.378;2023-05-19T03:56:27;98301.22;;;6.32;100.00
5872;BME280;2962;51.312;7.378;2023-05-19T03:58:53;98301.06;;;6.38;100.00
5872;BME280;2962;51.312;7.378;2023-05-19T04:01:19;98289.78;;;6.27;100.00
5872;BME280;2962;51.312;7.378;2023-05-19T04:03:44;98298.22;;;6.43;100.00
5872;BME280;2962;51.312;7.378;2023-05-19T04:06:10;98295.81;;;6.41;100.00
5872;BME280;2962;51.312;7.378;2023-05-19T04:08:37;98292.78;;;6.43;100.00
5872;BME280;2962;51.312;7.378;2023-05-19T04:11:03;98277.19;;;6.40;100.00
5872;BME280;2962;51.312;7.378;2023-05-19T04:13:28;98293.88;;;6.59;100.00
5872;BME280;2962;51.312;7.378;2023-05-19T04:15:53;98295.78;;;6.67;100.00
5872;BME280;2962;51.312;7.378;2023-05-19T04:18:19;98292.13;;;6.63;100.00
5872;BME280;2962;51.312;7.378;2023-05-19T04:20:44;98296.13;;;6.66;100.00
5872;BME280;2962;51.312;7.378;2023-05-19T04:23:10;98291.97;;;6.59;100.00
5872;BME280;2962;51.312;7.378;2023-05-19T04:25:35;98296.59;;;6.59;100.00
5872;BME280;2962;51.312;7.378;2023-05-19T04:28:00;98284.31;;;6.53;100.00
5872;BME280;2962;51.312;7.378;2023-05-19T04:30:27;98288.66;;;6.54;100.00
5872;BME280;2962;51.312;7.378;2023-05-19T04:32:53;98283.88;;;6.51;100.00
5872;BME280;2962;51.312;7.378;2023-05-19T04:35:18;98289.59;;;6.49;100.00
5872;BME280;2962;51.312;7.378;2023-05-19T04:37:44;98292.75;;;6.60;100.00
5872;BME280;2962;51.312;7.378;2023-05-19T04:40:13;98289.91;;;6.65;100.00
5872;BME280;2962;51.312;7.378;2023-05-19T04:42:38;98299.13;;;6.73;100.00
5872;BME280;2962;51.312;7.378;2023-05-19T04:45:09;98287.63;;;6.84;100.00
5872;BME280;2962;51.312;7.378;2023-05-19T04:47:36;98293.16;;;6.97;100.00
5872;BME280;2962;51.312;7.378;2023-05-19T04:50:02;98297.63;;;7.01;100.00
5872;BME280;2962;51.312;7.378;2023-05-19T04:52:28;98287.72;;;7.05;100.00
5872;BME280;2962;51.312;7.378;2023-05-19T04:54:53;98292.63;;;7.12;100.00
5872;BME280;2962;51.312;7.378;2023-05-19T04:57:18;98295.66;;;7.10;100.00
5872;BME280;2962;51.312;7.378;2023-05-19T04:59:43;98299.66;;;7.13;100.00
5872;BME280;2962;51.312;7.378;2023-05-19T05:02:10;98301.84;;;7.20;100.00
5872;BME280;2962;51.312;7.378;2023-05-19T05:04:35;98291.84;;;7.12;100.00
5872;BME280;2962;51.312;7.378;2023-05-19T05:07:00;98297.28;;;7.12;100.00
5872;BME280;2962;51.312;7.378;2023-05-19T05:09:26;98295.66;;;7.19;100.00
5872;BME280;2962;51.312;7.378;2023-05-19T05:11:51;98296.53;;;7.32;100.00
5872;BME280;2962;51.312;7.378;2023-05-19T05:14:17;98292.69;;;7.33;100.00
5872;BME280;2962;51.312;7.378;2023-05-19T05:16:42;98289.63;;;7.43;100.00
5872;BME280;2962;51.312;7.378;2023-05-19T05:19:08;98286.59;;;7.45;100.00
5872;BME280;2962;51.312;7.378;2023-05-19T05:21:33;98291.28;;;7.65;100.00
5872;BME280;2962;51.312;7.378;2023-05-19T05:23:59;98290.09;;;7.75;100.00
5872;BME280;2962;51.312;7.378;2023-05-19T05:26:28;98288.81;;;7.72;100.00
5872;BME280;2962;51.312;7.378;2023-05-19T05:28:54;98294.38;;;7.76;100.00
5872;BME280;2962;51.312;7.378;2023-05-19T05:31:20;98298.66;;;7.86;100.00
5872;BME280;2962;51.312;7.378;2023-05-19T05:33:45;98298.16;;;7.83;100.00
5872;BME280;2962;51.312;7.378;2023-05-19T05:36:10;98295.78;;;7.82;100.00
5872;BME280;2962;51.312;7.378;2023-05-19T05:38:36;98298.28;;;7.96;100.00
5872;BME280;2962;51.312;7.378;2023-05-19T05:41:01;98296.78;;;7.98;100.00
5872;BME280;2962;51.312;7.378;2023-05-19T05:43:28;98296.94;;;8.02;100.00
5872;BME280;2962;51.312;7.378;2023-05-19T05:45:53;98295.16;;;8.06;100.00
5872;BME280;2962;51.312;7.378;2023-05-19T05:48:19;98295.06;;;8.15;100.00
5872;BME280;2962;51.312;7.378;2023-05-19T05:50:44;98302.63;;;8.09;100.00
5872;BME280;2962;51.312;7.378;2023-05-19T05:53:16;98287.66;;;8.03;100.00
5872;BME280;2962;51.312;7.378;2023-05-19T05:55:42;98298.59;;;8.15;100.00
5872;BME280;2962;51.312;7.378;2023-05-19T05:58:08;98290.59;;;8.19;100.00
5872;BME280;2962;51.312;7.378;2023-05-19T06:00:35;98297.53;;;8.28;100.00
5872;BME280;2962;51.312;7.378;2023-05-19T06:03:01;98296.81;;;8.40;100.00
5872;BME280;2962;51.312;7.378;2023-05-19T06:05:28;98291.88;;;8.42;100.00
5872;BME280;2962;51.312;7.378;2023-05-19T06:07:53;98292.91;;;8.50;100.00
5872;BME280;2962;51.312;7.378;2023-05-19T06:10:19;98293.09;;;8.66;100.00
5872;BME280;2962;51.312;7.378;2023-05-19T06:12:44;98301.72;;;8.80;100.00
5872;BME280;2962;51.312;7.378;2023-05-19T06:15:10;98298.94;;;8.89;100.00
5872;BME280;2962;51.312;7.378;2023-05-19T06:17:35;98290.53;;;8.82;100.00
5872;BME280;2962;51.312;7.378;2023-05-19T06:20:04;98293.63;;;8.92;100.00
5872;BME280;2962;51.312;7.378;2023-05-19T06:22:35;98289.66;;;9.02;100.00
5872;BME280;2962;51.312;7.378;2023-05-19T06:25:01;98294.06;;;9.07;100.00
5872;BME280;2962;51.312;7.378;2023-05-19T06:27:27;98286.38;;;9.09;100.00
5872;BME280;2962;51.312;7.378;2023-05-19T06:29:52;98287.97;;;9.22;100.00
5872;BME280;2962;51.312;7.378;2023-05-19T06:32:18;98287.44;;;9.28;100.00
5872;BME280;2962;51.312;7.378;2023-05-19T06:34:43;98292.63;;;9.34;100.00
5872;BME280;2962;51.312;7.378;2023-05-19T06:37:08;98289.25;;;9.49;100.00
5872;BME280;2962;51.312;7.378;2023-05-19T06:39:34;98281.31;;;9.56;100.00
5872;BME280;2962;51.312;7.378;2023-05-19T06:41:59;98267.50;;;9.61;100.00
5872;BME280;2962;51.312;7.378;2023-05-19T06:44:25;98286.06;;;9.71;100.00
5872;BME280;2962;51.312;7.378;2023-05-19T06:46:50;98282.75;;;9.90;100.00
5872;BME280;2962;51.312;7.378;2023-05-19T06:49:15;98276.13;;;10.16;100.00
5872;BME280;2962;51.312;7.378;2023-05-19T06:51:40;98285.97;;;10.33;100.00
5872;BME280;2962;51.312;7.378;2023-05-19T06:54:06;98279.56;;;10.41;100.00
5872;BME280;2962;51.312;7.378;2023-05-19T06:56:31;98281.56;;;10.56;100.00
5872;BME280;2962;51.312;7.378;2023-05-19T06:58:57;98288.03;;;10.80;100.00
5872;BME280;2962;51.312;7.378;2023-05-19T07:01:22;98286.19;;;10.84;100.00
5872;BME280;2962;51.312;7.378;2023-05-19T07:03:47;98293.84;;;10.94;100.00
5872;BME280;2962;51.312;7.378;2023-05-19T07:06:13;98280.59;;;11.08;100.00
5872;BME280;2962;51.312;7.378;2023-05-19T07:08:38;98287.44;;;11.18;100.00
5872;BME280;2962;51.312;7.378;2023-05-19T07:11:03;98289.66;;;11.44;100.00
5872;BME280;2962;51.312;7.378;2023-05-19T07:13:29;98282.88;;;11.54;100.00
5872;BME280;2962;51.312;7.378;2023-05-19T07:15:54;98284.06;;;11.72;100.00
5872;BME280;2962;51.312;7.378;2023-05-19T07:18:22;98283.19;;;11.84;100.00
5872;BME280;2962;51.312;7.378;2023-05-19T07:20:48;98283.75;;;12.09;100.00
5872;BME280;2962;51.312;7.378;2023-05-19T07:23:13;98280.47;;;12.38;100.00
5872;BME280;2962;51.312;7.378;2023-05-19T07:25:38;98274.72;;;12.43;100.00
5872;BME280;2962;51.312;7.378;2023-05-19T07:28:04;98272.91;;;12.70;100.00
5872;BME280;2962;51.312;7.378;2023-05-19T07:30:29;98279.81;;;12.64;100.00
5872;BME280;2962;51.312;7.378;2023-05-19T07:32:55;98268.88;;;12.84;100.00
5872;BME280;2962;51.312;7.378;2023-05-19T07:35:20;98281.06;;;12.90;100.00
5872;BME280;2962;51.312;7.378;2023-05-19T07:37:48;98278.28;;;13.09;100.00
5872;BME280;2962;51.312;7.378;2023-05-19T07:40:14;98288.31;;;13.02;100.00
5872;BME280;2962;51.312;7.378;2023-05-19T07:42:40;98288.63;;;13.19;100.00
5872;BME280;2962;51.312;7.378;2023-05-19T07:45:05;98288.16;;;13.37;100.00
5872;BME280;2962;51.312;7.378;2023-05-19T07:47:31;98285.00;;;13.35;100.00
5872;BME280;2962;51.312;7.378;2023-05-19T07:49:56;98286.19;;;13.60;100.00
5872;BME280;2962;51.312;7.378;2023-05-19T07:52:21;98279.25;;;13.93;100.00
5872;BME280;2962;51.312;7.378;2023-05-19T07:54:47;98286.72;;;13.96;100.00
5872;BME280;2962;51.312;7.378;2023-05-19T07:57:12;98282.50;;;13.76;100.00
5872;BME280;2962;51.312;7.378;2023-05-19T07:59:38;98286.13;;;13.83;100.00
5872;BME280;2962;51.312;7.378;2023-05-19T08:02:04;98282.16;;;14.04;100.00
5872;BME280;2962;51.312;7.378;2023-05-19T08:04:29;98271.22;;;14.07;100.00
5872;BME280;2962;51.312;7.378;2023-05-19T08:06:54;98268.84;;;14.36;100.00
5872;BME280;2962;51.312;7.378;2023-05-19T08:09:19;98273.44;;;14.58;100.00
5872;BME280;2962;51.312;7.378;2023-05-19T08:11:45;98279.03;;;14.65;100.00
5872;BME280;2962;51.312;7.378;2023-05-19T08:14:13;98271.28;;;14.75;100.00
5872;BME280;2962;51.312;7.378;2023-05-19T08:16:39;98271.13;;;14.60;100.00
5872;BME280;2962;51.312;7.378;2023-05-19T08:19:06;98268.84;;;14.66;100.00
5872;BME280;2962;51.312;7.378;2023-05-19T08:21:31;98269.34;;;14.79;100.00
5872;BME280;2962;51.312;7.378;2023-05-19T08:24:01;98260.00;;;14.80;100.00
5872;BME280;2962;51.312;7.378;2023-05-19T08:26:27;98260.50;;;14.93;100.00
5872;BME280;2962;51.312;7.378;2023-05-19T08:28:52;98262.34;;;15.26;100.00
5872;BME280;2962;51.312;7.378;2023-05-19T08:31:18;98258.16;;;15.39;100.00
5872;BME280;2962;51.312;7.378;2023-05-19T08:33:44;98256.34;;;15.09;100.00
5872;BME280;2962;51.312;7.378;2023-05-19T08:36:09;98262.94;;;15.01;100.00
5872;BME280;2962;51.312;7.378;2023-05-19T08:38:35;98259.41;;;15.01;100.00
5872;BME280;2962;51.312;7.378;2023-05-19T08:41:00;98260.66;;;15.10;100.00
5872;BME280;2962;51.312;7.378;2023-05-19T08:43:25;98256.44;;;15.20;100.00
5872;BME280;2962;51.312;7.378;2023-05-19T08:45:51;98240.16;;;15.42;100.00
5872;BME280;2962;51.312;7.378;2023-05-19T08:48:18;98254.81;;;15.63;100.00
5872;BME280;2962;51.312;7.378;2023-05-19T08:51:23;98246.16;;;15.61;100.00
5872;BME280;2962;51.312;7.378;2023-05-19T08:53:57;98231.84;;;15.90;100.00
5872;BME280;2962;51.312;7.378;2023-05-19T08:56:24;98234.66;;;16.00;100.00
5872;BME280;2962;51.312;7.378;2023-05-19T08:58:51;98227.13;;;15.86;100.00
5872;BME280;2962;51.312;7.378;2023-05-19T09:01:18;98235.78;;;15.37;100.00
5872;BME280;2962;51.312;7.378;2023-05-19T09:03:45;98240.19;;;15.45;100.00
5872;BME280;2962;51.312;7.378;2023-05-19T09:06:11;98232.78;;;15.53;100.00
5872;BME280;2962;51.312;7.378;2023-05-19T09:08:37;98226.59;;;15.67;100.00
5872;BME280;2962;51.312;7.378;2023-05-19T09:11:02;98223.13;;;15.73;100.00
5872;BME280;2962;51.312;7.378;2023-05-19T09:13:28;98230.59;;;15.73;100.00
5872;BME280;2962;51.312;7.378;2023-05-19T09:15:55;98211.41;;;15.80;100.00
5872;BME280;2962;51.312;7.378;2023-05-19T09:18:23;98218.88;;;15.90;100.00
5872;BME280;2962;51.312;7.378;2023-05-19T09:20:50;98225.81;;;16.46;100.00
5872;BME280;2962;51.312;7.378;2023-05-19T09:23:18;98225.56;;;17.12;100.00
5872;BME280;2962;51.312;7.378;2023-05-19T09:25:48;98230.69;;;17.49;100.00
5872;BME280;2962;51.312;7.378;2023-05-19T09:28:14;98229.50;;;17.57;100.00
5872;BME280;2962;51.312;7.378;2023-05-19T09:30:46;98218.06;;;17.80;100.00
5872;BME280;2962;51.312;7.378;2023-05-19T09:33:16;98221.59;;;17.81;100.00
5872;BME280;2962;51.312;7.378;2023-05-19T09:35:46;98205.69;;;18.28;100.00
5872;BME280;2962;51.312;7.378;2023-05-19T09:38:16;98207.44;;;17.61;100.00
5872;BME280;2962;51.312;7.378;2023-05-19T09:40:42;98205.06;;;17.88;100.00
5872;BME280;2962;51.312;7.378;2023-05-19T09:43:08;98179.84;;;17.86;99.25
5872;BME280;2962;51.312;7.378;2023-05-19T09:45:33;98206.44;;;18.39;100.00
5872;BME280;2962;51.312;7.378;2023-05-19T09:48:02;98205.66;;;18.35;99.80
5872;BME280;2962;51.312;7.378;2023-05-19T09:50:28;98205.31;;;18.26;100.00
5872;BME280;2962;51.312;7.378;2023-05-19T09:52:55;98197.91;;;17.98;100.00
5872;BME280;2962;51.312;7.378;2023-05-19T09:55:24;98195.53;;;18.07;100.00
5872;BME280;2962;51.312;7.378;2023-05-19T09:57:49;98196.72;;;18.02;100.00
5872;BME280;2962;51.312;7.378;2023-05-19T10:00:17;98208.22;;;17.79;100.00
5872;BME280;2962;51.312;7.378;2023-05-19T10:02:44;98196.78;;;17.88;100.00
5872;BME280;2962;51.312;7.378;2023-05-19T10:05:15;98195.22;;;17.69;100.00
5872;BME280;2962;51.312;7.378;2023-05-19T10:07:44;98192.06;;;16.71;100.00
5872;BME280;2962;51.312;7.378;2023-05-19T10:10:13;98179.84;;;16.54;100.00
5872;BME280;2962;51.312;7.378;2023-05-19T10:12:39;98185.47;;;17.07;100.00
5872;BME280;2962;51.312;7.378;2023-05-19T10:15:09;98184.97;;;17.91;100.00
5872;BME280;2962;51.312;7.378;2023-05-19T10:17:39;98192.22;;;18.37;100.00
5872;BME280;2962;51.312;7.378;2023-05-19T10:20:08;98196.38;;;17.93;100.00
5872;BME280;2962;51.312;7.378;2023-05-19T10:22:35;98188.13;;;17.75;100.00
5872;BME280;2962;51.312;7.378;2023-05-19T10:25:01;98202.28;;;17.95;100.00
5872;BME280;2962;51.312;7.378;2023-05-19T10:27:27;98194.66;;;18.24;100.00
5872;BME280;2962;51.312;7.378;2023-05-19T10:29:56;98195.63;;;17.64;100.00
5872;BME280;2962;51.312;7.378;2023-05-19T10:32:26;98188.53;;;17.56;100.00
5872;BME280;2962;51.312;7.378;2023-05-19T10:37:53;98186.53;;;17.96;100.00
5872;BME280;2962;51.312;7.378;2023-05-19T10:40:29;98189.44;;;18.44;100.00
5872;BME280;2962;51.312;7.378;2023-05-19T10:45:47;98183.78;;;18.69;100.00
5872;BME280;2962;51.312;7.378;2023-05-19T10:48:14;98173.63;;;19.15;100.00
5872;BME280;2962;51.312;7.378;2023-05-19T10:50:43;98173.00;;;19.41;90.90
5872;BME280;2962;51.312;7.378;2023-05-19T10:53:16;98158.56;;;19.98;98.31
5872;BME280;2962;51.312;7.378;2023-05-19T10:55:53;98172.38;;;20.63;94.57
5872;BME280;2962;51.312;7.378;2023-05-19T11:01:11;98161.53;;;20.49;87.61
5872;BME280;2962;51.312;7.378;2023-05-19T11:03:53;98177.75;;;20.43;89.69
5872;BME280;2962;51.312;7.378;2023-05-19T11:06:25;98173.63;;;19.56;88.24
5872;BME280;2962;51.312;7.378;2023-05-19T11:08:52;98172.41;;;19.19;97.17
5872;BME280;2962;51.312;7.378;2023-05-19T11:11:18;98171.69;;;19.12;96.81
5872;BME280;2962;51.312;7.378;2023-05-19T11:13:49;98166.88;;;19.64;93.28
5872;BME280;2962;51.312;7.378;2023-05-19T11:16:18;98164.97;;;20.57;100.00
5872;BME280;2962;51.312;7.378;2023-05-19T11:18:47;98168.03;;;21.13;98.62
5872;BME280;2962;51.312;7.378;2023-05-19T11:21:13;98162.38;;;21.67;93.97
5872;BME280;2962;51.312;7.378;2023-05-19T11:23:38;98167.78;;;20.80;87.55
5872;BME280;2962;51.312;7.378;2023-05-19T11:26:07;98168.72;;;21.20;79.39
5872;BME280;2962;51.312;7.378;2023-05-19T11:28:33;98167.78;;;20.80;86.11
5872;BME280;2962;51.312;7.378;2023-05-19T11:30:59;98162.13;;;20.87;91.76
5872;BME280;2962;51.312;7.378;2023-05-19T11:33:26;98160.84;;;20.68;86.80
5872;BME280;2962;51.312;7.378;2023-05-19T11:35:55;98163.59;;;21.19;83.38
5872;BME280;2962;51.312;7.378;2023-05-19T11:38:24;98158.53;;;21.14;92.79
5872;BME280;2962;51.312;7.378;2023-05-19T11:40:53;98160.25;;;20.54;92.17
5872;BME280;2962;51.312;7.378;2023-05-19T11:43:21;98154.34;;;21.02;86.32
5872;BME280;2962;51.312;7.378;2023-05-19T11:45:46;98144.50;;;21.48;77.88
5872;BME280;2962;51.312;7.378;2023-05-19T11:48:12;98149.00;;;20.68;84.82
5872;BME280;2962;51.312;7.378;2023-05-19T11:50:40;98143.97;;;20.29;91.51
5872;BME280;2962;51.312;7.378;2023-05-19T11:53:06;98146.78;;;21.53;90.41
5872;BME280;2962;51.312;7.378;2023-05-19T11:55:31;98149.09;;;22.54;85.00
5872;BME280;2962;51.312;7.378;2023-05-19T11:57:58;98146.34;;;23.52;69.45
5872;BME280;2962;51.312;7.378;2023-05-19T12:00:24;98141.00;;;23.58;65.53
5872;BME280;2962;51.312;7.378;2023-05-19T12:02:50;98142.56;;;24.17;62.76
5872;BME280;2962;51.312;7.378;2023-05-19T12:05:23;98149.53;;;23.67;57.31
5872;BME280;2962;51.312;7.378;2023-05-19T12:07:49;98149.78;;;23.11;67.76
5872;BME280;2962;51.312;7.378;2023-05-19T12:10:26;98148.69;;;23.83;64.20
5872;BME280;2962;51.312;7.378;2023-05-19T12:12:52;98142.41;;;24.50;64.01
5872;BME280;2962;51.312;7.378;2023-05-19T12:15:19;98143.25;;;25.23;58.01
5872;BME280;2962;51.312;7.378;2023-05-19T12:18:06;98139.75;;;25.10;52.06
5872;BME280;2962;51.312;7.378;2023-05-19T12:20:31;98139.41;;;24.57;54.32
5872;BME280;2962;51.312;7.378;2023-05-19T12:22:59;98127.84;;;25.31;53.23
5872;BME280;2962;51.312;7.378;2023-05-19T12:25:25;98122.22;;;24.97;51.66
5872;BME280;2962;51.312;7.378;2023-05-19T12:27:56;98122.75;;;25.52;49.33
5872;BME280;2962;51.312;7.378;2023-05-19T12:30:26;98128.19;;;25.21;54.83
5872;BME280;2962;51.312;7.378;2023-05-19T12:32:53;98110.38;;;25.18;53.61
5872;BME280;2962;51.312;7.378;2023-05-19T12:35:19;98114.59;;;26.23;50.98
5872;BME280;2962;51.312;7.378;2023-05-19T12:37:47;98107.81;;;26.34;51.20
5872;BME280;2962;51.312;7.378;2023-05-19T12:40:15;98108.97;;;25.92;48.52
5872;BME280;2962;51.312;7.378;2023-05-19T12:42:43;98098.06;;;25.28;50.44
5872;BME280;2962;51.312;7.378;2023-05-19T12:45:09;98101.25;;;25.40;52.36
5872;BME280;2962;51.312;7.378;2023-05-19T12:47:35;98106.84;;;24.67;48.00
5872;BME280;2962;51.312;7.378;2023-05-19T12:50:04;98102.78;;;24.04;49.43
5872;BME280;2962;51.312;7.378;2023-05-19T12:52:33;98109.59;;;23.45;52.07
5872;BME280;2962;51.312;7.378;2023-05-19T12:57:29;98101.22;;;25.05;53.05
5872;BME280;2962;51.312;7.378;2023-05-19T13:02:29;98094.75;;;26.30;46.17
5872;BME280;2962;51.312;7.378;2023-05-19T13:04:54;98107.22;;;26.08;44.53
5872;BME280;2962;51.312;7.378;2023-05-19T13:07:19;98092.72;;;26.53;44.65
5872;BME280;2962;51.312;7.378;2023-05-19T13:09:45;98104.81;;;26.50;45.67
5872;BME280;2962;51.312;7.378;2023-05-19T13:12:10;98112.50;;;27.45;44.05
5872;BME280;2962;51.312;7.378;2023-05-19T13:14:35;98107.34;;;27.25;43.53
5872;BME280;2962;51.312;7.378;2023-05-19T13:17:01;98095.16;;;26.91;41.90
5872;BME280;2962;51.312;7.378;2023-05-19T13:19:27;98106.88;;;26.37;41.88
5872;BME280;2962;51.312;7.378;2023-05-19T13:21:52;98100.84;;;27.65;40.65
5872;BME280;2962;51.312;7.378;2023-05-19T13:24:18;98107.22;;;26.39;40.21
5872;BME280;2962;51.312;7.378;2023-05-19T13:26:43;98105.84;;;26.84;43.84
5872;BME280;2962;51.312;7.378;2023-05-19T13:29:09;98118.41;;;27.47;42.06
5872;BME280;2962;51.312;7.378;2023-05-19T13:31:36;98112.72;;;28.39;42.17
5872;BME280;2962;51.312;7.378;2023-05-19T13:34:01;98094.34;;;26.82;41.20
5872;BME280;2962;51.312;7.378;2023-05-19T13:36:26;98098.50;;;26.68;43.18
5872;BME280;2962;51.312;7.378;2023-05-19T13:38:52;98095.09;;;27.22;40.70
5872;BME280;2962;51.312;7.378;2023-05-19T13:41:22;98095.66;;;26.27;42.46
5872;BME280;2962;51.312;7.378;2023-05-19T13:43:48;98087.78;;;27.34;43.70
5872;BME280;2962;51.312;7.378;2023-05-19T13:46:14;98093.50;;;27.67;41.37
5872;BME280;2962;51.312;7.378;2023-05-19T13:48:39;98076.91;;;28.34;36.96
5872;BME280;2962;51.312;7.378;2023-05-19T13:51:04;98078.53;;;26.16;40.35